sensor_id;sensor_type;location;lat;lon;timestamp;pressure;altitude;pressure_sealevel;temperature;humidity
29315;BME280;16320;53.954;9.506;2023-04-19T00:01:41;102911.50;;;5.71;100.00
29315;BME280;16320;53.954;9.506;2023-04-19T00:04:46;102910.59;;;5.68;100.00
29315;BME280;16320;53.954;9.506;2023-04-19T00:07:52;102915.84;;;5.65;100.00
29315;BME280;16320;53.954;9.506;2023-04-19T00:10:59;102910.59;;;5.62;100.00
29315;BME280;16320;53.954;9.506;2023-04-19T00:14:05;102914.91;;;5.57;100.00
29315;BME280;16320;53.954;9.506;2023-04-19T00:17:15;102913.16;;;5.53;100.00
29315;BME280;16320;53.954;9.506;2023-04-19T00:20:21;102915.72;;;5.47;100.00
29315;BME280;16320;53.954;9.506;2023-04-19T00:23:27;102909.66;;;5.48;100.00
29315;BME280;16320;53.954;9.506;2023-04-19T00:26:32;102913.09;;;5.42;100.00
29315;BME280;16320;53.954;9.506;2023-04-19T00:29:38;102908.75;;;5.37;100.00
29315;BME280;16320;53.954;9.506;2023-04-19T00:32:46;102900.88;;;5.30;100.00
29315;BME280;16320;53.954;9.506;2023-04-19T00:35:53;102899.97;;;5.24;100.00
29315;BME280;16320;53.954;9.506;2023-04-19T00:38:58;102899.91;;;5.13;100.00
29315;BME280;16320;53.954;9.506;2023-04-19T00:42:03;102898.22;;;5.15;100.00
29315;BME280;16320;53.954;9.506;2023-04-19T00:45:10;102901.69;;;5.17;100.00
29315;BME280;16320;53.954;9.506;2023-04-19T00:48:18;102903.41;;;5.18;100.00
29315;BME280;16320;53.954;9.506;2023-04-19T00:51:23;102896.47;;;5.17;100.00
29315;BME280;16320;53.954;9.506;2023-04-19T00:54:28;102902.50;;;5.11;100.00
29315;BME280;16320;53.954;9.506;2023-04-19T00:57:35;102906.03;;;5.15;100.00
29315;BME280;16320;53.954;9.506;2023-04-19T01:00:41;102896.47;;;5.16;100.00
29315;BME280;16320;53.954;9.506;2023-04-19T01:03:46;102898.25;;;5.24;100.00
29315;BME280;16320;53.954;9.506;2023-04-19T01:06:51;102902.63;;;5.31;100.00
29315;BME280;16320;53.954;9.506;2023-04-19T01:09:56;102900.06;;;5.35;100.00
29315;BME280;16320;53.954;9.506;2023-04-19T01:13:03;102894.81;;;5.38;100.00
29315;BME280;16320;53.954;9.506;2023-04-19T01:16:07;102900.06;;;5.41;100.00
29315;BME280;16320;53.954;9.506;2023-04-19T01:19:11;102895.72;;;5.38;100.00
29315;BME280;16320;53.954;9.506;2023-04-19T01:22:19;102892.22;;;5.31;100.00
29315;BME280;16320;53.954;9.506;2023-04-19T01:25:26;102895.69;;;5.34;100.00
29315;BME280;16320;53.954;9.506;2023-04-19T01:28:31;102896.56;;;5.34;100.00
29315;BME280;16320;53.954;9.506;2023-04-19T01:31:36;102888.72;;;5.34;100.00
29315;BME280;16320;53.954;9.506;2023-04-19T01:34:40;102891.34;;;5.32;100.00
29315;BME280;16320;53.954;9.506;2023-04-19T01:37:46;102893.13;;;5.43;100.00
29315;BME280;16320;53.954;9.506;2023-04-19T01:40:50;102898.34;;;5.43;100.00
29315;BME280;16320;53.954;9.506;2023-04-19T01:43:54;102898.34;;;5.40;100.00
29315;BME280;16320;53.954;9.506;2023-04-19T01:46:59;102896.56;;;5.36;100.00
29315;BME280;16320;53.954;9.506;2023-04-19T01:50:06;102895.69;;;5.35;100.00
29315;BME280;16320;53.954;9.506;2023-04-19T01:53:10;102895.72;;;5.38;100.00
29315;BME280;16320;53.954;9.506;2023-04-19T01:56:14;102883.53;;;5.34;100.00
29315;BME280;16320;53.954;9.506;2023-04-19T01:59:19;102880.94;;;5.36;100.00
29315;BME280;16320;53.954;9.506;2023-04-19T02:02:23;102880.06;;;5.37;100.00
29315;BME280;16320;53.954;9.506;2023-04-19T02:05:28;102880.91;;;5.32;100.00
29315;BME280;16320;53.954;9.506;2023-04-19T02:08:32;102879.16;;;5.28;100.00
29315;BME280;16320;53.954;9.506;2023-04-19T02:11:37;102880.03;;;5.27;100.00
29315;BME280;16320;53.954;9.506;2023-04-19T02:14:41;102883.41;;;5.11;100.00
29315;BME280;16320;53.954;9.506;2023-04-19T02:17:46;102884.22;;;4.98;100.00
29315;BME280;16320;53.954;9.506;2023-04-19T02:20:51;102876.34;;;4.93;100.00
29315;BME280;16320;53.954;9.506;2023-04-19T02:23:55;102882.38;;;4.81;100.00
29315;BME280;16320;53.954;9.506;2023-04-19T02:27:00;102884.88;;;4.72;100.00
29315;BME280;16320;53.954;9.506;2023-04-19T02:30:07;102879.72;;;4.76;100.00
29315;BME280;16320;53.954;9.506;2023-04-19T02:33:12;102880.53;;;4.72;100.00
29315;BME280;16320;53.954;9.506;2023-04-19T02:36:16;102881.44;;;4.71;100.00
29315;BME280;16320;53.954;9.506;2023-04-19T02:39:20;102885.75;;;4.74;100.00
29315;BME280;16320;53.954;9.506;2023-04-19T02:42:25;102884.03;;;4.73;100.00
29315;BME280;16320;53.954;9.506;2023-04-19T02:45:29;102892.72;;;4.75;100.00
29315;BME280;16320;53.954;9.506;2023-04-19T02:48:33;102894.44;;;4.76;100.00
29315;BME280;16320;53.954;9.506;2023-04-19T02:51:37;102897.91;;;4.72;100.00
29315;BME280;16320;53.954;9.506;2023-04-19T02:54:42;102897.91;;;4.72;100.00
29315;BME280;16320;53.954;9.506;2023-04-19T02:57:47;102901.38;;;4.72;100.00
29315;BME280;16320;53.954;9.506;2023-04-19T03:00:51;102889.22;;;4.70;100.00
29315;BME280;16320;53.954;9.506;2023-04-19T03:03:56;102897.84;;;4.66;100.00
29315;BME280;16320;53.954;9.506;2023-04-19T03:07:00;102897.03;;;4.68;100.00
29315;BME280;16320;53.954;9.506;2023-04-19T03:10:07;102896.16;;;4.71;100.00
29315;BME280;16320;53.954;9.506;2023-04-19T03:13:11;102895.31;;;4.72;100.00
29315;BME280;16320;53.954;9.506;2023-04-19T03:16:16;102892.69;;;4.70;100.00
29315;BME280;16320;53.954;9.506;2023-04-19T03:19:20;102887.47;;;4.69;100.00
29315;BME280;16320;53.954;9.506;2023-04-19T03:22:25;102890.03;;;4.64;100.00
29315;BME280;16320;53.954;9.506;2023-04-19T03:25:29;102890.03;;;4.66;100.00
29315;BME280;16320;53.954;9.506;2023-04-19T03:28:33;102886.56;;;4.65;100.00
29315;BME280;16320;53.954;9.506;2023-04-19T03:31:38;102882.25;;;4.69;100.00
29315;BME280;16320;53.954;9.506;2023-04-19T03:34:43;102882.25;;;4.69;100.00
29315;BME280;16320;53.954;9.506;2023-04-19T03:37:48;102881.41;;;4.68;100.00
29315;BME280;16320;53.954;9.506;2023-04-19T03:40:52;102881.41;;;4.68;100.00
29315;BME280;16320;53.954;9.506;2023-04-19T03:43:57;102884.81;;;4.64;100.00
29315;BME280;16320;53.954;9.506;2023-04-19T03:47:02;102880.47;;;4.62;100.00
29315;BME280;16320;53.954;9.506;2023-04-19T03:50:08;102876.94;;;4.56;100.00
29315;BME280;16320;53.954;9.506;2023-04-19T03:53:12;102879.50;;;4.49;100.00
29315;BME280;16320;53.954;9.506;2023-04-19T03:56:16;102882.91;;;4.42;100.00
29315;BME280;16320;53.954;9.506;2023-04-19T03:59:20;102882.03;;;4.41;100.00
29315;BME280;16320;53.954;9.506;2023-04-19T04:02:25;102881.97;;;4.33;100.00
29315;BME280;16320;53.954;9.506;2023-04-19T04:05:30;102882.84;;;4.34;100.00
29315;BME280;16320;53.954;9.506;2023-04-19T04:08:35;102882.84;;;4.35;100.00
29315;BME280;16320;53.954;9.506;2023-04-19T04:11:39;102880.25;;;4.37;100.00
29315;BME280;16320;53.954;9.506;2023-04-19T04:14:43;102885.47;;;4.34;100.00
29315;BME280;16320;53.954;9.506;2023-04-19T04:17:48;102875.03;;;4.31;100.00
29315;BME280;16320;53.954;9.506;2023-04-19T04:20:52;102876.75;;;4.32;100.00
29315;BME280;16320;53.954;9.506;2023-04-19T04:23:57;102880.13;;;4.21;100.00
29315;BME280;16320;53.954;9.506;2023-04-19T04:27:02;102883.53;;;4.14;100.00
29315;BME280;16320;53.954;9.506;2023-04-19T04:30:07;102881.75;;;4.10;100.00
29315;BME280;16320;53.954;9.506;2023-04-19T04:33:12;102886.94;;;4.07;100.00
29315;BME280;16320;53.954;9.506;2023-04-19T04:36:17;102894.69;;;4.02;100.00
29315;BME280;16320;53.954;9.506;2023-04-19T04:39:22;102892.09;;;4.04;100.00
29315;BME280;16320;53.954;9.506;2023-04-19T04:42:27;102895.56;;;4.06;100.00
29315;BME280;16320;53.954;9.506;2023-04-19T04:45:34;102900.78;;;4.05;100.00
29315;BME280;16320;53.954;9.506;2023-04-19T04:48:38;102897.28;;;4.04;100.00
29315;BME280;16320;53.954;9.506;2023-04-19T04:51:43;102904.19;;;3.99;100.00
29315;BME280;16320;53.954;9.506;2023-04-19T04:54:47;102902.50;;;4.04;100.00
29315;BME280;16320;53.954;9.506;2023-04-19T04:57:52;102901.72;;;4.10;100.00
29315;BME280;16320;53.954;9.506;2023-04-19T05:00:56;102892.19;;;4.13;100.00
29315;BME280;16320;53.954;9.506;2023-04-19T05:04:00;102885.25;;;4.12;100.00
29315;BME280;16320;53.954;9.506;2023-04-19T05:07:07;102891.34;;;4.14;100.00
29315;BME280;16320;53.954;9.506;2023-04-19T05:10:12;102888.75;;;4.14;100.00
29315;BME280;16320;53.954;9.506;2023-04-19T05:13:16;102885.31;;;4.18;100.00
29315;BME280;16320;53.954;9.506;2023-04-19T05:16:21;102889.69;;;4.21;100.00
29315;BME280;16320;53.954;9.506;2023-04-19T05:19:25;102894.03;;;4.24;100.00
29315;BME280;16320;53.954;9.506;2023-04-19T05:22:29;102887.09;;;4.26;100.00
29315;BME280;16320;53.954;9.506;2023-04-19T05:25:34;102896.72;;;4.34;100.00
29315;BME280;16320;53.954;9.506;2023-04-19T05:28:41;102886.34;;;4.37;100.00
29315;BME280;16320;53.954;9.506;2023-04-19T05:31:46;102895.97;;;4.46;100.00
29315;BME280;16320;53.954;9.506;2023-04-19T05:34:51;102891.63;;;4.48;100.00
29315;BME280;16320;53.954;9.506;2023-04-19T05:37:56;102883.94;;;4.61;100.00
29315;BME280;16320;53.954;9.506;2023-04-19T05:41:03;102892.69;;;4.69;100.00
29315;BME280;16320;53.954;9.506;2023-04-19T05:44:08;102888.44;;;4.82;100.00
29315;BME280;16320;53.954;9.506;2023-04-19T05:47:12;102891.97;;;4.91;100.00
29315;BME280;16320;53.954;9.506;2023-04-19T05:50:16;102888.59;;;5.09;100.00
29315;BME280;16320;53.954;9.506;2023-04-19T05:53:23;102887.81;;;5.26;100.00
29315;BME280;16320;53.954;9.506;2023-04-19T05:56:28;102884.44;;;5.44;100.00
29315;BME280;16320;53.954;9.506;2023-04-19T05:59:33;102881.00;;;5.59;100.00
29315;BME280;16320;53.954;9.506;2023-04-19T06:02:38;102881.06;;;5.69;100.00
29315;BME280;16320;53.954;9.506;2023-04-19T06:05:42;102877.63;;;5.83;100.00
29315;BME280;16320;53.954;9.506;2023-04-19T06:08:46;102879.44;;;5.96;100.00
29315;BME280;16320;53.954;9.506;2023-04-19T06:11:51;102870.75;;;6.00;100.00
29315;BME280;16320;53.954;9.506;2023-04-19T06:14:57;102869.88;;;6.14;100.00
29315;BME280;16320;53.954;9.506;2023-04-19T06:18:03;102871.66;;;6.26;100.00
29315;BME280;16320;53.954;9.506;2023-04-19T06:21:09;102865.56;;;6.40;100.00
29315;BME280;16320;53.954;9.506;2023-04-19T06:24:14;102857.72;;;6.56;100.00
29315;BME280;16320;53.954;9.506;2023-04-19T06:27:19;102858.56;;;6.70;100.00
29315;BME280;16320;53.954;9.506;2023-04-19T06:30:23;102855.06;;;6.84;100.00
29315;BME280;16320;53.954;9.506;2023-04-19T06:33:28;102844.59;;;6.96;100.00
29315;BME280;16320;53.954;9.506;2023-04-19T06:36:32;102839.34;;;7.08;100.00
29315;BME280;16320;53.954;9.506;2023-04-19T06:39:37;102831.47;;;7.18;100.00
29315;BME280;16320;53.954;9.506;2023-04-19T06:42:41;102826.19;;;7.31;100.00
29315;BME280;16320;53.954;9.506;2023-04-19T06:45:47;102810.44;;;7.42;100.00
29315;BME280;16320;53.954;9.506;2023-04-19T06:48:52;102819.09;;;7.52;100.00
29315;BME280;16320;53.954;9.506;2023-04-19T06:51:59;102801.59;;;7.66;100.00
29315;BME280;16320;53.954;9.506;2023-04-19T06:55:06;102784.97;;;7.78;100.00
29315;BME280;16320;53.954;9.506;2023-04-19T06:58:11;102784.84;;;7.91;100.00
29315;BME280;16320;53.954;9.506;2023-04-19T07:01:16;102775.16;;;8.03;100.00
29315;BME280;16320;53.954;9.506;2023-04-19T07:04:20;102767.22;;;8.14;100.00
29315;BME280;16320;53.954;9.506;2023-04-19T07:07:25;102770.59;;;8.29;100.00
29315;BME280;16320;53.954;9.506;2023-04-19T07:10:29;102768.69;;;8.41;100.00
29315;BME280;16320;53.954;9.506;2023-04-19T07:13:34;102767.72;;;8.56;100.00
29315;BME280;16320;53.954;9.506;2023-04-19T07:16:40;102756.22;;;8.70;100.00
29315;BME280;16320;53.954;9.506;2023-04-19T07:19:47;102752.53;;;8.86;100.00
29315;BME280;16320;53.954;9.506;2023-04-19T07:22:52;102739.31;;;8.97;100.00
29315;BME280;16320;53.954;9.506;2023-04-19T07:25:56;102749.63;;;9.08;100.00
29315;BME280;16320;53.954;9.506;2023-04-19T07:29:00;102738.19;;;9.15;100.00
29315;BME280;16320;53.954;9.506;2023-04-19T07:32:09;102729.25;;;9.30;100.00
29315;BME280;16320;53.954;9.506;2023-04-19T07:35:14;102732.72;;;9.30;100.00
29315;BME280;16320;53.954;9.506;2023-04-19T07:38:21;102722.06;;;9.43;100.00
29315;BME280;16320;53.954;9.506;2023-04-19T07:41:26;102730.66;;;9.54;100.00
29315;BME280;16320;53.954;9.506;2023-04-19T07:44:31;102714.66;;;9.69;100.00
29315;BME280;16320;53.954;9.506;2023-04-19T07:47:35;102730.22;;;9.82;100.00
29315;BME280;16320;53.954;9.506;2023-04-19T07:50:39;102715.19;;;9.90;100.00
29315;BME280;16320;53.954;9.506;2023-04-19T07:53:45;102729.94;;;9.97;100.00
29315;BME280;16320;53.954;9.506;2023-04-19T07:56:50;102720.13;;;10.07;100.00
29315;BME280;16320;53.954;9.506;2023-04-19T07:59:54;102709.63;;;10.07;100.00
29315;BME280;16320;53.954;9.506;2023-04-19T08:03:02;102719.13;;;10.16;100.00
29315;BME280;16320;53.954;9.506;2023-04-19T08:06:08;102725.88;;;10.29;100.00
29315;BME280;16320;53.954;9.506;2023-04-19T08:09:12;102737.06;;;10.42;100.00
29315;BME280;16320;53.954;9.506;2023-04-19T08:12:17;102735.22;;;10.47;100.00
29315;BME280;16320;53.954;9.506;2023-04-19T08:15:38;102727.28;;;10.49;100.00
29315;BME280;16320;53.954;9.506;2023-04-19T08:18:45;102727.19;;;10.55;100.00
29315;BME280;16320;53.954;9.506;2023-04-19T08:21:51;102720.00;;;10.63;100.00
29315;BME280;16320;53.954;9.506;2023-04-19T08:24:55;102711.16;;;10.67;100.00
29315;BME280;16320;53.954;9.506;2023-04-19T08:28:00;102714.63;;;10.69;100.00
29315;BME280;16320;53.954;9.506;2023-04-19T08:31:05;102713.53;;;10.79;100.00
29315;BME280;16320;53.954;9.506;2023-04-19T08:34:13;102703.81;;;10.83;100.00
29315;BME280;16320;53.954;9.506;2023-04-19T08:37:17;102701.94;;;10.90;100.00
29315;BME280;16320;53.954;9.506;2023-04-19T08:40:22;102690.53;;;10.91;100.00
29315;BME280;16320;53.954;9.506;2023-04-19T08:43:29;102701.59;;;11.05;100.00
29315;BME280;16320;53.954;9.506;2023-04-19T08:46:36;102691.91;;;11.07;100.00
29315;BME280;16320;53.954;9.506;2023-04-19T08:49:41;102686.59;;;11.10;100.00
29315;BME280;16320;53.954;9.506;2023-04-19T08:52:47;102687.03;;;11.29;100.00
29315;BME280;16320;53.954;9.506;2023-04-19T08:56:02;102678.91;;;11.39;100.00
29315;BME280;16320;53.954;9.506;2023-04-19T08:59:24;102677.78;;;11.50;100.00
29315;BME280;16320;53.954;9.506;2023-04-19T09:02:52;102675.75;;;11.62;100.00
29315;BME280;16320;53.954;9.506;2023-04-19T09:06:00;102670.34;;;11.66;100.00
29315;BME280;16320;53.954;9.506;2023-04-19T09:09:26;102664.94;;;11.71;100.00
29315;BME280;16320;53.954;9.506;2023-04-19T09:13:04;102657.66;;;11.82;100.00
29315;BME280;16320;53.954;9.506;2023-04-19T09:16:24;102659.19;;;11.91;100.00
29315;BME280;16320;53.954;9.506;2023-04-19T09:19:45;102648.31;;;12.05;100.00
29315;BME280;16320;53.954;9.506;2023-04-19T09:23:03;102644.72;;;12.07;100.00
29315;BME280;16320;53.954;9.506;2023-04-19T09:26:12;102635.78;;;12.13;100.00
29315;BME280;16320;53.954;9.506;2023-04-19T09:29:20;102627.16;;;12.08;100.00
29315;BME280;16320;53.954;9.506;2023-04-19T09:32:25;102637.34;;;12.20;100.00
29315;BME280;16320;53.954;9.506;2023-04-19T09:38:49;102629.56;;;12.47;100.00
29315;BME280;16320;53.954;9.506;2023-04-19T09:41:54;102628.66;;;12.48;98.59
29315;BME280;16320;53.954;9.506;2023-04-19T09:44:58;102613.81;;;12.44;100.00
29315;BME280;16320;53.954;9.506;2023-04-19T09:48:12;102626.09;;;12.45;100.00
29315;BME280;16320;53.954;9.506;2023-04-19T09:51:16;102613.38;;;12.59;100.00
29315;BME280;16320;53.954;9.506;2023-04-19T09:54:23;102609.47;;;12.73;100.00
29315;BME280;16320;53.954;9.506;2023-04-19T09:57:32;102609.28;;;12.79;100.00
29315;BME280;16320;53.954;9.506;2023-04-19T10:00:45;102604.28;;;12.98;100.00
29315;BME280;16320;53.954;9.506;2023-04-19T10:03:56;102603.03;;;13.10;100.00
29315;BME280;16320;53.954;9.506;2023-04-19T10:07:17;102587.78;;;13.19;79.02
29315;BME280;16320;53.954;9.506;2023-04-19T10:10:34;102598.19;;;13.24;70.08
29315;BME280;16320;53.954;9.506;2023-04-19T10:13:46;102580.66;;;13.22;60.54
29315;BME280;16320;53.954;9.506;2023-04-19T10:16:52;102584.16;;;13.22;63.12
29315;BME280;16320;53.954;9.506;2023-04-19T10:20:04;102591.59;;;13.38;70.04
29315;BME280;16320;53.954;9.506;2023-04-19T10:23:10;102586.59;;;13.28;58.04
29315;BME280;16320;53.954;9.506;2023-04-19T10:26:14;102575.00;;;13.34;61.06
29315;BME280;16320;53.954;9.506;2023-04-19T10:30:01;102560.63;;;13.43;52.86
29315;BME280;16320;53.954;9.506;2023-04-19T10:33:25;102568.38;;;13.47;51.65
29315;BME280;16320;53.954;9.506;2023-04-19T10:36:31;102566.59;;;13.48;60.30
29315;BME280;16320;53.954;9.506;2023-04-19T10:39:42;102559.53;;;13.73;57.81
29315;BME280;16320;53.954;9.506;2023-04-19T10:49:28;102530.28;;;14.49;48.58
29315;BME280;16320;53.954;9.506;2023-04-19T10:52:34;102539.56;;;14.61;46.63
29315;BME280;16320;53.954;9.506;2023-04-19T10:55:49;102538.03;;;14.77;47.53
29315;BME280;16320;53.954;9.506;2023-04-19T11:05:26;102524.59;;;15.25;44.76
29315;BME280;16320;53.954;9.506;2023-04-19T11:08:30;102519.09;;;15.09;42.45
29315;BME280;16320;53.954;9.506;2023-04-19T11:11:35;102518.63;;;14.99;46.96
29315;BME280;16320;53.954;9.506;2023-04-19T11:14:42;102510.03;;;14.72;47.16
29315;BME280;16320;53.954;9.506;2023-04-19T11:17:49;102508.56;;;14.64;48.00
29315;BME280;16320;53.954;9.506;2023-04-19T11:21:12;102509.53;;;14.62;45.12
29315;BME280;16320;53.954;9.506;2023-04-19T11:24:18;102515.53;;;14.67;45.03
29315;BME280;16320;53.954;9.506;2023-04-19T11:27:24;102502.81;;;14.53;49.66
29315;BME280;16320;53.954;9.506;2023-04-19T11:30:29;102504.47;;;14.56;46.49
29315;BME280;16320;53.954;9.506;2023-04-19T11:33:35;102502.09;;;14.50;43.95
29315;BME280;16320;53.954;9.506;2023-04-19T11:36:52;102497.25;;;14.61;47.85
29315;BME280;16320;53.954;9.506;2023-04-19T11:39:57;102490.00;;;14.66;51.90
29315;BME280;16320;53.954;9.506;2023-04-19T11:43:03;102489.53;;;14.55;46.24
29315;BME280;16320;53.954;9.506;2023-04-19T11:46:10;102489.72;;;14.50;42.32
29315;BME280;16320;53.954;9.506;2023-04-19T11:49:29;102476.19;;;14.58;41.56
29315;BME280;16320;53.954;9.506;2023-04-19T11:52:34;102476.31;;;14.55;47.20
29315;BME280;16320;53.954;9.506;2023-04-19T11:55:55;102469.16;;;14.57;39.97
29315;BME280;16320;53.954;9.506;2023-04-19T11:59:00;102473.28;;;14.42;41.73
29315;BME280;16320;53.954;9.506;2023-04-19T12:02:11;102475.97;;;14.64;42.11
29315;BME280;16320;53.954;9.506;2023-04-19T12:05:16;102463.50;;;14.88;41.83
29315;BME280;16320;53.954;9.506;2023-04-19T12:08:35;102478.91;;;14.99;44.61
29315;BME280;16320;53.954;9.506;2023-04-19T12:11:46;102461.06;;;15.25;41.13
29315;BME280;16320;53.954;9.506;2023-04-19T12:14:54;102471.06;;;15.78;45.23
29315;BME280;16320;53.954;9.506;2023-04-19T12:18:00;102464.69;;;15.82;42.23
29315;BME280;16320;53.954;9.506;2023-04-19T12:21:05;102460.47;;;16.16;47.22
29315;BME280;16320;53.954;9.506;2023-04-19T12:24:11;102454.88;;;16.22;41.45
29315;BME280;16320;53.954;9.506;2023-04-19T12:27:18;102454.09;;;16.20;42.29
29315;BME280;16320;53.954;9.506;2023-04-19T12:30:23;102445.69;;;16.29;42.62
29315;BME280;16320;53.954;9.506;2023-04-19T12:33:27;102434.91;;;16.33;41.94
29315;BME280;16320;53.954;9.506;2023-04-19T12:36:31;102448.78;;;16.01;38.97
29315;BME280;16320;53.954;9.506;2023-04-19T12:39:36;102438.69;;;15.90;43.49
29315;BME280;16320;53.954;9.506;2023-04-19T12:42:40;102441.53;;;16.24;42.47
29315;BME280;16320;53.954;9.506;2023-04-19T12:45:45;102440.88;;;16.38;45.67
29315;BME280;16320;53.954;9.506;2023-04-19T12:48:49;102449.00;;;16.52;47.42
29315;BME280;16320;53.954;9.506;2023-04-19T12:51:54;102436.06;;;16.81;46.42
29315;BME280;16320;53.954;9.506;2023-04-19T12:55:03;102449.41;;;16.79;37.13
29315;BME280;16320;53.954;9.506;2023-04-19T12:58:15;102448.47;;;16.80;36.88
29315;BME280;16320;53.954;9.506;2023-04-19T13:01:19;102421.75;;;16.85;43.10
29315;BME280;16320;53.954;9.506;2023-04-19T13:04:24;102430.94;;;17.13;44.32
29315;BME280;16320;53.954;9.506;2023-04-19T13:07:29;102420.09;;;17.33;42.52
29315;BME280;16320;53.954;9.506;2023-04-19T13:10:34;102431.44;;;17.53;41.34
29315;BME280;16320;53.954;9.506;2023-04-19T13:13:39;102427.97;;;17.01;39.66
29315;BME280;16320;53.954;9.506;2023-04-19T13:16:43;102428.25;;;17.30;42.87
29315;BME280;16320;53.954;9.506;2023-04-19T13:19:47;102440.41;;;17.34;40.58
29315;BME280;16320;53.954;9.506;2023-04-19T13:22:52;102421.22;;;17.29;45.42
29315;BME280;16320;53.954;9.506;2023-04-19T13:25:56;102416.69;;;17.14;38.45
29315;BME280;16320;53.954;9.506;2023-04-19T13:29:03;102415.00;;;17.13;38.85
29315;BME280;16320;53.954;9.506;2023-04-19T13:32:08;102407.25;;;17.42;42.34
29315;BME280;16320;53.954;9.506;2023-04-19T13:35:15;102391.97;;;17.47;40.36
29315;BME280;16320;53.954;9.506;2023-04-19T13:38:21;102398.16;;;17.30;40.92
29315;BME280;16320;53.954;9.506;2023-04-19T13:41:26;102397.22;;;16.97;38.81
29315;BME280;16320;53.954;9.506;2023-04-19T13:44:31;102408.25;;;16.36;38.16
29315;BME280;16320;53.954;9.506;2023-04-19T13:47:35;102400.91;;;16.23;35.21
29315;BME280;16320;53.954;9.506;2023-04-19T13:50:40;102403.00;;;16.71;35.88
29315;BME280;16320;53.954;9.506;2023-04-19T13:53:46;102403.91;;;16.70;40.38
29315;BME280;16320;53.954;9.506;2023-04-19T13:56:51;102393.59;;;16.81;34.81
29315;BME280;16320;53.954;9.506;2023-04-19T13:59:56;102396.03;;;17.20;36.05
29315;BME280;16320;53.954;9.506;2023-04-19T14:03:00;102386.38;;;17.35;38.75
29315;BME280;16320;53.954;9.506;2023-04-19T14:06:05;102375.63;;;17.21;37.54
29315;BME280;16320;53.954;9.506;2023-04-19T14:09:09;102377.06;;;16.76;34.96
29315;BME280;16320;53.954;9.506;2023-04-19T14:12:14;102377.69;;;16.98;35.89
29315;BME280;16320;53.954;9.506;2023-04-19T14:15:19;102366.16;;;16.99;35.62
29315;BME280;16320;53.954;9.506;2023-04-19T14:18:24;102380.50;;;16.78;35.15
29315;BME280;16320;53.954;9.506;2023-04-19T14:21:29;102372.84;;;16.72;34.36
29315;BME280;16320;53.954;9.506;2023-04-19T14:24:34;102364.16;;;17.20;36.76
29315;BME280;16320;53.954;9.506;2023-04-19T14:27:39;102375.22;;;17.45;38.36
29315;BME280;16320;53.954;9.506;2023-04-19T14:30:44;102368.25;;;16.93;35.20
29315;BME280;16320;53.954;9.506;2023-04-19T14:33:48;102369.59;;;17.01;37.85
29315;BME280;16320;53.954;9.506;2023-04-19T14:36:52;102365.06;;;16.86;36.36
29315;BME280;16320;53.954;9.506;2023-04-19T14:39:57;102359.72;;;17.53;34.75
29315;BME280;16320;53.954;9.506;2023-04-19T14:43:01;102362.88;;;18.54;34.84
29315;BME280;16320;53.954;9.506;2023-04-19T14:46:06;102342.03;;;19.34;33.67
29315;BME280;16320;53.954;9.506;2023-04-19T14:49:12;102344.03;;;19.86;33.29
29315;BME280;16320;53.954;9.506;2023-04-19T14:52:17;102349.56;;;19.83;30.73
29315;BME280;16320;53.954;9.506;2023-04-19T14:55:21;102345.69;;;19.74;29.92
29315;BME280;16320;53.954;9.506;2023-04-19T14:58:28;102350.47;;;19.97;28.10
29315;BME280;16320;53.954;9.506;2023-04-19T15:01:33;102358.38;;;19.56;32.27
29315;BME280;16320;53.954;9.506;2023-04-19T15:04:37;102345.44;;;18.78;31.54
29315;BME280;16320;53.954;9.506;2023-04-19T15:07:46;102344.13;;;17.79;31.91
29315;BME280;16320;53.954;9.506;2023-04-19T15:10:50;102337.50;;;17.38;33.79
29315;BME280;16320;53.954;9.506;2023-04-19T15:13:55;102340.53;;;16.81;30.13
29315;BME280;16320;53.954;9.506;2023-04-19T15:16:59;102342.91;;;16.35;32.16
29315;BME280;16320;53.954;9.506;2023-04-19T15:20:06;102348.03;;;16.20;34.98
29315;BME280;16320;53.954;9.506;2023-04-19T15:23:11;102344.28;;;16.07;33.90
29315;BME280;16320;53.954;9.506;2023-04-19T15:26:16;102342.81;;;16.19;34.30
29315;BME280;16320;53.954;9.506;2023-04-19T15:29:21;102325.13;;;16.37;33.26
29315;BME280;16320;53.954;9.506;2023-04-19T15:32:25;102327.25;;;15.93;35.09
29315;BME280;16320;53.954;9.506;2023-04-19T15:35:30;102327.13;;;15.59;35.75
29315;BME280;16320;53.954;9.506;2023-04-19T15:38:35;102332.63;;;15.35;38.63
29315;BME280;16320;53.954;9.506;2023-04-19T15:41:39;102332.28;;;15.24;36.28
29315;BME280;16320;53.954;9.506;2023-04-19T15:44:44;102324.25;;;15.06;40.65
29315;BME280;16320;53.954;9.506;2023-04-19T15:47:49;102330.50;;;14.85;39.19
29315;BME280;16320;53.954;9.506;2023-04-19T15:50:53;102328.66;;;14.87;40.42
29315;BME280;16320;53.954;9.506;2023-04-19T15:53:58;102322.72;;;14.39;37.19
29315;BME280;16320;53.954;9.506;2023-04-19T15:57:01;102330.00;;;13.91;36.92
29315;BME280;16320;53.954;9.506;2023-04-19T16:00:07;102327.34;;;13.69;39.61
29315;BME280;16320;53.954;9.506;2023-04-19T16:03:12;102319.38;;;13.47;39.59
29315;BME280;16320;53.954;9.506;2023-04-19T16:06:17;102329.75;;;13.51;38.65
29315;BME280;16320;53.954;9.506;2023-04-19T16:09:22;102319.25;;;13.26;41.05
29315;BME280;16320;53.954;9.506;2023-04-19T16:12:26;102332.09;;;13.12;41.63
29315;BME280;16320;53.954;9.506;2023-04-19T16:15:31;102318.53;;;12.97;43.42
29315;BME280;16320;53.954;9.506;2023-04-19T16:18:36;102321.28;;;12.94;42.85
29315;BME280;16320;53.954;9.506;2023-04-19T16:21:41;102330.88;;;12.97;45.25
29315;BME280;16320;53.954;9.506;2023-04-19T16:24:47;102318.00;;;13.13;44.44
29315;BME280;16320;53.954;9.506;2023-04-19T16:27:51;102317.34;;;13.06;40.84